Dublin, VA

7:03 PM EST on January 30, 2015 (GMT -0500)
KVADUBLI3 | Change Station
CLOSE
Current Station
Personal Weather Station
Location: Dublin, VA
Elevation: 2133 ft
Nearby Weather Stations
Active Advisory: Wind Advisory Active Notice: Public Information Statement

Elev 2133 ft 37.10 °N, 80.68 °W | Updated 5 seconds ago

Clear
Clear
24.3 °F
Feels Like 15 °F
N
8.3
Wind Variable Wind from WNW
Gusts 9.8 mph

Today
High -- | Low -- °F
--% Chance of Precip.
Yesterday
High -- | Low -- °F
Precip. -- in
7:27 AM 5:45 PM
Waxing Gibbous, 86% visible
Pressure 30.24 in
Visibility 10.0 miles
Clouds Clear
Windchill 15 °F
Dew Point -24 °F
Humidity 10%
Rainfall 0.00 in
Snow Depth Not available.
UV 0 out of 12
Pollen 1.00 out of 12
Air Quality Not available.
Flu Activity Not available.
METAR KPSK 302335Z AUTO 30010G19KT 10SM CLR M03/M12 A3024 RMK AO2 T10311120

More Conditions Fewer Conditions

Pressure 30.24 in
Visibility 10.0 miles
Clouds Clear
Windchill 15 °F
Dew Point -24 °F
Humidity 10%
Rainfall 0.00 in
Snow Depth Not available.
UV 0 out of 12
Pollen 1.00 out of 12
Air Quality Not available.
Flu Activity Not available.
METAR KPSK 302335Z AUTO 30010G19KT 10SM CLR M03/M12 A3024 RMK AO2 T10311120

More Conditions Fewer Conditions

10-Day Weather Forecast

Almanac

Astronomy

Jan. 30, 2015 Rise Set
Actual Time
Civil Twilight
Nautical Twilight
Astronomical Twilight
Moon
Length of Visible Light
Length of Day
Tomorrow will be .
, % of the Moon is Illuminated

Today's Extremes

State Highs State Lows

Community

WunderPhotos

Upload Photos

1,791,939 photos uploaded!

WunderBlogs® & News

Nearby

Air Quality

  Air Quality AQ Index Pollutant
Not available.

Snow Depth

Station Depth Elevation

Earthquake Activity

City Distance Mag. Time & Date
Minimum magnitude displayed is 2.5.

Coastal Water Temperatures

Place Temperature

Nearby Weather Stations